Terminal Aerodrome Forecast
Issued by NWS

Current Version | Previous Version | Text Only | Print | Product List | Glossary On
Versions: 1 2 3 4 5 6 7 8 9 10 11 12 13 14 15 16 17 18 19 20 21 22 23 24
000 FTUS41 KOKX 010500 TAFGON TAF KGON 010524Z 0106/0206 22004KT 6SM BR SCT010 BKN030 TEMPO 0109/0113 1SM BR BKN010 FM011500 24004KT 3SM BR SCT007 BKN015 FM011800 23006KT 6SM HZ SCT015 BKN035 FM020300 23003KT 5SM BR SCT015 BKN025=

USA.gov is the U.S. government's official web portal to all federal, state and local government web resources and services.